Time;durP1;ratioP1;P1;durP2;ratioP2;P2;SDS_P1;SDS_P2;PMS_P1;PMS_P2;Temp;Humidity;BMP_temperature;BMP_pressure;BME280_temperature;BME280_humidity;BME280_pressure;Samples;Min_cycle;Max_cycle;Signal;HPM_P1;HPM_P2
2022/07/26 00:02:22;;;;;;;20.23;3.85;;;18.70;99.90;;;;;;5028908;28;206339;-67
2022/07/26 00:04:49;;;;;;;21.67;3.85;;;18.70;99.90;;;;;;5041381;28;156454;-67
2022/07/26 00:07:15;;;;;;;17.25;3.55;;;18.70;99.90;;;;;;5043103;28;210902;-67
2022/07/26 00:09:42;;;;;;;23.67;3.90;;;18.70;99.90;;;;;;5063547;28;261884;-67
2022/07/26 00:12:09;;;;;;;18.30;4.00;;;18.60;99.90;;;;;;5040973;28;216527;-67
2022/07/26 00:14:35;;;;;;;19.00;3.65;;;18.60;99.90;;;;;;5055981;28;108126;-67
2022/07/26 00:17:03;;;;;;;24.70;3.90;;;18.60;99.90;;;;;;5020797;28;213245;-67
2022/07/26 00:19:29;;;;;;;24.92;3.88;;;18.50;99.90;;;;;;5062892;28;257253;-67
2022/07/26 00:24:41;;;;;;;26.55;4.00;;;18.50;99.90;;;;;;5056195;28;118752;-66
2022/07/26 00:27:07;;;;;;;22.52;4.13;;;18.50;99.90;;;;;;5026555;28;205856;-67
2022/07/26 00:29:33;;;;;;;20.58;4.13;;;18.50;99.90;;;;;;5061595;28;270530;-68
2022/07/26 00:31:59;;;;;;;19.27;3.50;;;18.40;99.90;;;;;;5025706;28;210648;-67
2022/07/26 00:34:26;;;;;;;21.40;4.00;;;18.40;99.90;;;;;;5061628;28;257536;-67
2022/07/26 00:36:52;;;;;;;20.15;3.45;;;18.40;99.90;;;;;;5027885;28;210529;-66
2022/07/26 00:39:18;;;;;;;22.98;4.07;;;18.40;99.90;;;;;;5057362;28;64012;-66
2022/07/26 00:41:44;;;;;;;20.60;3.70;;;18.30;99.90;;;;;;5019616;28;204623;-67
2022/07/26 00:44:10;;;;;;;18.48;3.25;;;18.30;99.90;;;;;;5061706;28;272265;-67
2022/07/26 00:46:39;;;;;;;21.75;3.50;;;18.30;99.90;;;;;;5040917;28;221577;-67
2022/07/26 00:49:05;;;;;;;21.02;3.72;;;18.30;99.90;;;;;;5059129;28;27636;-67
2022/07/26 00:51:32;;;;;;;21.00;4.10;;;18.30;99.90;;;;;;5020753;28;210876;-67
2022/07/26 00:53:58;;;;;;;21.73;4.07;;;18.30;99.90;;;;;;5061314;28;267858;-67
2022/07/26 00:56:25;;;;;;;21.40;3.72;;;18.30;99.90;;;;;;5027275;28;209996;-66
2022/07/26 00:58:51;;;;;;;21.52;3.65;;;18.30;99.90;;;;;;5055648;28;128986;-67
2022/07/26 01:01:17;;;;;;;18.15;3.25;;;18.30;99.90;;;;;;5040203;28;210673;-66
2022/07/26 01:03:44;;;;;;;22.67;3.97;;;18.30;99.90;;;;;;5044424;28;114252;-67
2022/07/26 01:06:10;;;;;;;19.63;3.65;;;18.20;99.90;;;;;;5017704;28;221915;-67
2022/07/26 01:08:36;;;;;;;21.20;3.90;;;18.20;99.90;;;;;;5033494;28;262507;-67
2022/07/26 01:11:02;;;;;;;17.25;3.15;;;18.20;99.90;;;;;;5034054;28;208365;-68
2022/07/26 01:13:29;;;;;;;17.23;3.67;;;18.20;99.90;;;;;;5061188;28;272704;-67
2022/07/26 01:15:55;;;;;;;20.40;3.47;;;18.20;99.90;;;;;;5024148;28;205959;-67
2022/07/26 01:18:21;;;;;;;19.85;3.75;;;18.20;99.90;;;;;;5048108;28;265124;-66
2022/07/26 01:20:48;;;;;;;22.80;3.85;;;18.20;99.90;;;;;;5041165;28;221366;-66
2022/07/26 01:23:14;;;;;;;18.14;3.70;;;18.20;99.90;;;;;;5062909;28;264371;-66
2022/07/26 01:25:41;;;;;;;17.50;3.45;;;18.20;99.90;;;;;;5022080;28;210551;-66
2022/07/26 01:28:07;;;;;;;18.00;3.33;;;18.20;99.90;;;;;;5071413;28;20048;-66
2022/07/26 01:30:33;;;;;;;16.27;3.60;;;18.20;99.90;;;;;;5019445;28;276733;-66
2022/07/26 01:32:59;;;;;;;15.98;3.22;;;18.20;99.90;;;;;;5070602;28;20067;-67
2022/07/26 01:35:25;;;;;;;18.33;3.10;;;18.20;99.90;;;;;;5057072;28;256219;-66
2022/07/26 01:37:52;;;;;;;18.55;3.50;;;18.20;99.90;;;;;;5043275;28;199761;-67
2022/07/26 01:40:18;;;;;;;18.13;3.38;;;18.20;99.90;;;;;;5069221;28;250533;-66
2022/07/26 01:42:44;;;;;;;19.27;3.13;;;18.10;99.90;;;;;;5036907;28;209310;-67
2022/07/26 01:45:11;;;;;;;16.90;3.05;;;18.20;99.90;;;;;;5067779;28;270996;-67
2022/07/26 01:47:38;;;;;;;15.30;2.70;;;18.10;99.90;;;;;;5041009;28;209408;-66
2022/07/26 01:50:07;;;;;;;12.90;2.63;;;18.20;99.90;;;;;;5068423;28;252639;-67
2022/07/26 01:52:34;;;;;;;15.93;3.00;;;18.20;99.90;;;;;;5028184;28;212191;-66
2022/07/26 01:55:00;;;;;;;15.20;2.65;;;18.20;99.90;;;;;;5069501;28;272981;-68
2022/07/26 01:57:26;;;;;;;11.70;2.58;;;18.20;99.90;;;;;;5042681;28;209431;-68
2022/07/26 01:59:54;;;;;;;14.63;2.65;;;18.20;99.90;;;;;;5067871;28;278054;-68
2022/07/26 02:02:20;;;;;;;14.43;2.28;;;18.10;99.90;;;;;;5022833;28;212887;-67
2022/07/26 02:04:58;;;;;;;11.02;2.30;;;18.20;99.90;;;;;;5048920;28;273376;-66
2022/07/26 02:07:26;;;;;;;9.80;2.08;;;18.20;99.90;;;;;;4996127;28;207862;-67
2022/07/26 02:09:53;;;;;;;13.50;2.42;;;18.10;99.90;;;;;;5064822;28;258583;-67
2022/07/26 02:12:19;;;;;;;12.52;2.30;;;18.20;99.90;;;;;;5035405;28;115335;-67
2022/07/26 02:14:45;;;;;;;9.52;2.00;;;18.20;99.90;;;;;;5057651;28;150135;-67
2022/07/26 02:17:11;;;;;;;9.43;2.17;;;18.10;99.90;;;;;;5034026;28;206031;-67
2022/07/26 02:19:37;;;;;;;9.48;2.00;;;18.10;99.90;;;;;;5064012;28;272052;-68
2022/07/26 02:22:04;;;;;;;9.55;2.25;;;18.10;99.90;;;;;;5037847;28;210292;-68
2022/07/26 02:24:31;;;;;;;9.48;2.00;;;18.10;99.90;;;;;;5065089;28;259729;-67
2022/07/26 02:26:58;;;;;;;9.45;2.10;;;18.10;99.90;;;;;;5023381;28;209735;-66
2022/07/26 02:29:25;;;;;;;11.48;2.53;;;18.10;99.90;;;;;;5060761;28;20891;-67
2022/07/26 02:31:52;;;;;;;10.00;2.40;;;18.10;99.90;;;;;;5037566;28;209335;-66
2022/07/26 02:34:19;;;;;;;7.65;2.20;;;18.10;99.90;;;;;;5060061;28;66771;-66
2022/07/26 02:36:45;;;;;;;10.27;2.45;;;18.00;99.90;;;;;;5028000;28;164453;-66
2022/07/26 02:39:12;;;;;;;10.27;2.42;;;18.00;99.90;;;;;;5063607;28;271688;-66
2022/07/26 02:41:38;;;;;;;10.20;2.33;;;17.90;99.90;;;;;;5041977;28;210143;-67
2022/07/26 02:44:07;;;;;;;11.10;2.70;;;17.80;99.90;;;;;;5040614;28;143153;-67
2022/07/26 02:46:33;;;;;;;11.63;2.60;;;17.90;99.90;;;;;;5037004;28;208611;-67
2022/07/26 02:48:59;;;;;;;8.68;2.38;;;17.80;99.90;;;;;;5064585;28;247697;-66
2022/07/26 02:51:26;;;;;;;10.52;2.60;;;17.80;99.90;;;;;;5036507;28;211307;-67
2022/07/26 02:53:56;;;;;;;8.73;2.13;;;17.70;99.90;;;;;;5054742;28;202510;-67
2022/07/26 02:56:22;;;;;;;10.00;2.40;;;17.70;99.90;;;;;;5026707;28;207793;-66
2022/07/26 02:58:48;;;;;;;10.85;2.72;;;17.80;99.90;;;;;;5063907;28;267659;-67
2022/07/26 03:01:14;;;;;;;10.10;2.78;;;17.80;99.90;;;;;;5028655;28;166171;-67
2022/07/26 03:03:40;;;;;;;9.90;2.78;;;17.80;99.90;;;;;;5042543;28;154570;-67
2022/07/26 03:06:07;;;;;;;9.60;2.40;;;17.70;99.90;;;;;;5042658;28;206237;-67
2022/07/26 03:08:33;;;;;;;9.30;2.65;;;17.60;99.90;;;;;;5063550;28;263293;-66
2022/07/26 03:10:59;;;;;;;11.60;2.78;;;17.50;99.90;;;;;;5033867;28;187619;-66
2022/07/26 03:13:25;;;;;;;12.18;2.72;;;17.40;99.90;;;;;;5064438;28;254409;-65
2022/07/26 03:15:51;;;;;;;9.02;2.38;;;17.30;99.90;;;;;;5042617;28;208458;-65
2022/07/26 03:18:17;;;;;;;16.40;3.00;;;17.30;99.90;;;;;;5063535;28;258602;-66
2022/07/26 03:20:44;;;;;;;11.90;2.30;;;17.20;99.90;;;;;;5036568;28;211557;-66
2022/07/26 03:23:10;;;;;;;10.75;2.20;;;17.30;99.90;;;;;;5083998;28;20037;-66
2022/07/26 03:25:36;;;;;;;13.57;2.53;;;17.20;99.90;;;;;;4996345;28;221712;-66
2022/07/26 03:28:02;;;;;;;12.07;2.47;;;17.20;99.90;;;;;;5084687;28;20048;-66
2022/07/26 03:30:28;;;;;;;11.70;2.38;;;17.20;99.90;;;;;;5040219;28;271871;-66
2022/07/26 03:32:54;;;;;;;11.77;2.58;;;17.10;99.90;;;;;;5066293;28;207617;-66
2022/07/26 03:35:21;;;;;;;11.73;2.50;;;17.10;99.90;;;;;;5060812;28;20452;-66
2022/07/26 03:37:47;;;;;;;11.38;2.45;;;17.20;99.90;;;;;;5020309;28;209756;-66
2022/07/26 03:40:15;;;;;;;12.23;2.65;;;17.10;99.90;;;;;;5064862;28;270055;-66
2022/07/26 03:42:41;;;;;;;10.63;2.33;;;17.10;99.90;;;;;;5033678;28;210708;-66
2022/07/26 03:45:08;;;;;;;11.05;2.53;;;17.10;99.90;;;;;;5060759;28;20425;-66
2022/07/26 03:47:34;;;;;;;11.73;2.50;;;17.10;99.90;;;;;;5041008;28;212100;-65
2022/07/26 03:50:00;;;;;;;13.18;2.50;;;17.10;99.90;;;;;;5064227;28;261651;-66
2022/07/26 03:52:26;;;;;;;12.07;2.65;;;17.10;99.90;;;;;;5038565;28;209250;-65
2022/07/26 03:54:52;;;;;;;12.07;2.47;;;17.10;99.90;;;;;;5059430;28;44307;-65
2022/07/26 03:57:18;;;;;;;11.43;2.72;;;17.00;99.90;;;;;;5026796;28;207389;-66
2022/07/26 03:59:45;;;;;;;16.25;2.42;;;17.00;99.90;;;;;;5062747;28;251512;-66
2022/07/26 04:02:11;;;;;;;11.60;2.20;;;17.00;99.90;;;;;;5036372;28;208955;-65
2022/07/26 04:04:37;;;;;;;15.00;2.50;;;17.00;99.90;;;;;;5042444;28;184336;-66
2022/07/26 04:07:03;;;;;;;11.82;2.17;;;16.90;99.90;;;;;;5034861;28;212651;-66
2022/07/26 04:09:29;;;;;;;15.25;2.70;;;16.90;99.90;;;;;;5057660;28;79789;-66
2022/07/26 04:11:56;;;;;;;12.65;2.25;;;16.80;99.90;;;;;;5034903;28;211602;-66
2022/07/26 04:14:22;;;;;;;14.25;2.45;;;16.80;99.90;;;;;;5060166;28;33595;-66
2022/07/26 04:16:48;;;;;;;12.25;2.58;;;16.80;99.90;;;;;;5040720;28;212597;-66
2022/07/26 04:19:14;;;;;;;13.27;2.20;;;16.70;99.90;;;;;;5061927;28;272052;-66
2022/07/26 04:21:40;;;;;;;15.82;2.25;;;16.70;99.90;;;;;;5024879;28;211075;-66
2022/07/26 04:24:06;;;;;;;15.68;2.25;;;16.70;99.90;;;;;;5054085;28;185542;-66
2022/07/26 04:26:33;;;;;;;12.98;2.35;;;16.70;99.90;;;;;;5035142;28;217967;-66
2022/07/26 04:28:59;;;;;;;12.18;2.05;;;16.70;99.90;;;;;;5061877;28;268035;-66
2022/07/26 04:31:25;;;;;;;10.10;1.73;;;16.70;99.90;;;;;;5024396;28;206675;-66
2022/07/26 04:33:51;;;;;;;13.18;2.03;;;16.70;99.90;;;;;;5054897;28;136919;-65
2022/07/26 04:36:17;;;;;;;11.80;1.95;;;16.70;99.90;;;;;;5027219;28;206416;-65
2022/07/26 04:38:44;;;;;;;13.00;1.90;;;16.70;99.90;;;;;;5061658;28;282497;-66
2022/07/26 04:41:10;;;;;;;11.55;1.73;;;16.70;99.90;;;;;;5027824;28;144538;-66
2022/07/26 04:43:36;;;;;;;11.70;1.85;;;16.80;99.90;;;;;;5051680;28;266428;-65
2022/07/26 04:46:02;;;;;;;11.13;1.70;;;16.80;99.90;;;;;;5040092;28;209525;-66
2022/07/26 04:48:28;;;;;;;13.90;1.90;;;16.90;99.90;;;;;;5049548;28;256554;-66
2022/07/26 04:50:55;;;;;;;14.93;2.08;;;16.80;99.90;;;;;;5033184;28;210521;-66
2022/07/26 04:53:21;;;;;;;13.40;1.85;;;16.90;99.90;;;;;;5047816;28;274048;-66
2022/07/26 04:55:47;;;;;;;13.95;1.70;;;16.90;99.90;;;;;;5017717;28;209709;-65
2022/07/26 04:58:13;;;;;;;11.20;1.85;;;16.90;99.90;;;;;;5081383;28;20063;-65
2022/07/26 05:00:40;;;;;;;9.48;1.40;;;16.80;99.90;;;;;;5022473;28;209399;-66
2022/07/26 05:03:06;;;;;;;9.50;1.55;;;16.80;99.90;;;;;;5082295;28;20404;-64
2022/07/26 05:05:32;;;;;;;10.18;1.50;;;16.80;99.90;;;;;;4989165;28;213006;-65
2022/07/26 05:08:01;;;;;;;12.77;1.50;;;16.80;99.90;;;;;;5083084;28;20052;-65
2022/07/26 05:10:34;;;;;;;15.00;1.80;;;16.90;99.90;;;;;;5035461;28;276553;-66
2022/07/26 05:13:05;;;;;;;8.38;1.48;;;16.90;99.90;;;;;;5065444;28;209070;-66
2022/07/26 05:15:32;;;;;;;13.80;1.90;;;16.90;99.90;;;;;;5008854;28;212668;-66
2022/07/26 05:18:05;;;;;;;11.48;1.48;;;16.90;99.90;;;;;;5087023;28;20489;-66
2022/07/26 05:20:31;;;;;;;10.52;1.60;;;17.00;99.90;;;;;;5010009;28;212779;-67
2022/07/26 05:22:58;;;;;;;6.80;1.20;;;17.00;99.90;;;;;;5083707;28;20048;-66
2022/07/26 05:25:25;;;;;;;9.23;1.33;;;17.00;99.90;;;;;;5057215;28;254986;-66
2022/07/26 05:27:51;;;;;;;10.52;1.60;;;17.00;99.90;;;;;;5031405;28;240567;-66
2022/07/26 05:30:18;;;;;;;8.88;1.20;;;17.10;99.90;;;;;;5065554;28;253909;-67
2022/07/26 05:32:44;;;;;;;7.82;1.33;;;17.20;99.90;;;;;;5028197;28;172574;-66
2022/07/26 05:35:11;;;;;;;9.07;1.00;;;17.20;99.90;;;;;;5039433;28;180202;-66
2022/07/26 05:37:37;;;;;;;11.70;1.40;;;17.20;99.90;;;;;;5026635;28;213906;-67
2022/07/26 05:40:05;;;;;;;11.60;1.50;;;17.30;99.90;;;;;;5065271;28;266679;-65
2022/07/26 05:42:31;;;;;;;10.10;1.27;;;17.30;99.90;;;;;;5035975;28;213583;-65
2022/07/26 05:44:58;;;;;;;9.90;1.33;;;17.40;99.90;;;;;;5063434;28;265449;-66
2022/07/26 05:47:24;;;;;;;9.82;1.40;;;17.40;99.90;;;;;;5019443;28;208449;-65
2022/07/26 05:49:50;;;;;;;9.18;1.30;;;17.40;99.90;;;;;;5061114;28;269583;-65
2022/07/26 05:52:17;;;;;;;12.00;1.58;;;17.20;99.90;;;;;;5023469;28;208857;-65
2022/07/26 05:54:43;;;;;;;8.77;1.25;;;17.10;99.90;;;;;;5059250;28;40108;-66
2022/07/26 05:57:09;;;;;;;8.88;1.27;;;17.00;99.90;;;;;;5023095;28;256488;-66
2022/07/26 05:59:35;;;;;;;11.23;1.35;;;17.00;99.90;;;;;;5062819;28;256372;-66
2022/07/26 06:02:01;;;;;;;8.75;0.98;;;17.00;99.90;;;;;;5035746;28;228120;-66
2022/07/26 06:04:27;;;;;;;9.15;1.20;;;17.00;99.90;;;;;;5047850;28;271780;-66
2022/07/26 06:06:54;;;;;;;6.65;1.00;;;17.10;99.90;;;;;;5034795;28;220286;-66
2022/07/26 06:09:22;;;;;;;11.68;1.25;;;17.20;99.90;;;;;;5058463;28;39391;-66
2022/07/26 06:11:49;;;;;;;8.75;1.13;;;17.30;99.90;;;;;;5035402;28;210249;-66
2022/07/26 06:14:15;;;;;;;8.55;1.08;;;17.40;99.90;;;;;;5063104;28;24194;-66
2022/07/26 06:16:41;;;;;;;7.30;1.10;;;17.50;99.90;;;;;;5039735;28;211737;-65
2022/07/26 06:19:07;;;;;;;6.60;1.02;;;17.60;99.90;;;;;;5065820;28;259592;-66
2022/07/26 06:21:33;;;;;;;10.32;1.00;;;17.70;99.90;;;;;;5031265;28;225531;-66
2022/07/26 06:23:59;;;;;;;9.15;1.05;;;17.70;99.90;;;;;;5068152;28;272050;-66
2022/07/26 06:26:25;;;;;;;8.30;1.30;;;17.70;99.90;;;;;;5040000;28;208845;-66
2022/07/26 06:28:51;;;;;;;9.50;1.27;;;17.70;99.90;;;;;;5066347;28;236418;-67
2022/07/26 06:31:18;;;;;;;8.35;1.17;;;17.70;99.90;;;;;;5018786;28;176449;-67
2022/07/26 06:33:44;;;;;;;8.15;1.30;;;17.60;99.90;;;;;;5065267;28;275903;-66
2022/07/26 06:36:10;;;;;;;9.48;1.10;;;17.50;99.90;;;;;;5043418;28;209826;-66
2022/07/26 06:38:36;;;;;;;9.13;1.00;;;17.50;99.90;;;;;;5064536;28;262040;-66
2022/07/26 06:41:02;;;;;;;9.80;1.10;;;17.50;99.90;;;;;;5036267;28;210545;-65
2022/07/26 06:43:29;;;;;;;8.27;1.08;;;17.60;99.90;;;;;;5052991;28;258251;-67
2022/07/26 06:45:55;;;;;;;7.50;1.10;;;17.60;99.90;;;;;;5038871;28;213466;-68
2022/07/26 06:48:21;;;;;;;7.28;1.13;;;17.70;99.90;;;;;;5034174;28;266505;-67
2022/07/26 06:50:47;;;;;;;6.68;1.00;;;17.70;99.90;;;;;;5036689;28;216198;-67
2022/07/26 06:53:13;;;;;;;8.60;1.20;;;17.80;99.90;;;;;;5068512;28;20053;-67
2022/07/26 06:55:40;;;;;;;7.75;0.90;;;17.90;99.90;;;;;;5026286;28;215375;-67
2022/07/26 06:58:06;;;;;;;8.27;1.27;;;17.90;99.90;;;;;;5083604;28;20079;-67
2022/07/26 07:00:32;;;;;;;6.93;0.90;;;17.90;99.90;;;;;;5015679;28;261520;-68
2022/07/26 07:02:58;;;;;;;10.52;1.35;;;17.90;99.90;;;;;;5068575;28;20071;-68
2022/07/26 07:05:24;;;;;;;6.55;0.82;;;17.80;99.90;;;;;;5053553;28;261722;-67
2022/07/26 07:07:50;;;;;;;10.27;1.30;;;17.90;99.90;;;;;;5049986;28;207066;-68
2022/07/26 07:10:17;;;;;;;8.73;1.10;;;18.00;99.90;;;;;;5057733;28;120551;-68
2022/07/26 07:12:43;;;;;;;8.48;1.00;;;18.00;99.90;;;;;;5026626;28;195876;-68
2022/07/26 07:15:11;;;;;;;9.60;1.15;;;18.10;99.90;;;;;;5066051;28;259256;-68
2022/07/26 07:17:37;;;;;;;8.32;1.27;;;18.10;99.90;;;;;;5042096;28;209468;-67
2022/07/26 07:20:04;;;;;;;10.63;1.17;;;18.20;99.90;;;;;;5064173;28;275612;-68
2022/07/26 07:22:31;;;;;;;11.55;1.13;;;18.50;99.90;;;;;;5021932;28;211549;-67
2022/07/26 07:24:57;;;;;;;9.07;1.15;;;18.70;99.90;;;;;;5063786;28;273714;-68
2022/07/26 07:27:23;;;;;;;10.90;1.30;;;18.90;99.90;;;;;;5024347;28;205996;-67
2022/07/26 07:29:49;;;;;;;10.68;1.25;;;19.00;99.90;;;;;;5062883;28;270816;-67
2022/07/26 07:32:16;;;;;;;10.23;1.30;;;18.90;99.90;;;;;;5026380;28;215278;-67
2022/07/26 07:34:44;;;;;;;8.15;1.30;;;18.80;99.90;;;;;;5041520;28;232190;-68
2022/07/26 07:37:11;;;;;;;12.35;1.42;;;18.90;99.90;;;;;;5024360;28;204584;-68
2022/07/26 07:39:40;;;;;;;10.82;1.30;;;19.20;99.90;;;;;;5055793;28;172895;-67
2022/07/26 07:42:06;;;;;;;10.85;1.20;;;19.80;99.90;;;;;;5035279;28;211090;-68
2022/07/26 07:44:32;;;;;;;8.05;1.13;;;20.00;99.90;;;;;;5063439;28;310930;-67
2022/07/26 07:46:58;;;;;;;8.98;1.10;;;19.90;99.90;;;;;;5037109;28;216883;-68
2022/07/26 07:49:25;;;;;;;12.00;1.20;;;19.70;99.90;;;;;;5063360;28;275768;-68
2022/07/26 07:51:51;;;;;;;12.02;1.20;;;19.80;99.90;;;;;;5035922;28;214745;-67
2022/07/26 07:54:17;;;;;;;11.23;1.15;;;19.70;99.90;;;;;;5063104;28;274444;-67
2022/07/26 07:56:43;;;;;;;10.93;1.50;;;19.70;99.90;;;;;;5026706;28;206701;-67
2022/07/26 07:59:10;;;;;;;8.25;1.10;;;19.80;99.90;;;;;;5062563;28;261980;-67
2022/07/26 08:01:36;;;;;;;9.65;1.25;;;20.10;99.90;;;;;;5040707;28;221759;-68
2022/07/26 08:04:02;;;;;;;7.75;1.02;;;20.20;99.90;;;;;;5044381;28;99064;-68
2022/07/26 08:06:28;;;;;;;10.35;1.10;;;20.20;99.90;;;;;;5021560;28;207161;-67
2022/07/26 08:08:54;;;;;;;9.40;1.30;;;20.30;99.90;;;;;;5053359;28;214256;-68
2022/07/26 08:11:21;;;;;;;9.35;1.30;;;20.30;99.90;;;;;;5022172;28;208023;-67
2022/07/26 08:13:47;;;;;;;10.32;1.42;;;20.30;99.90;;;;;;5062151;28;269552;-68
2022/07/26 08:16:13;;;;;;;9.63;1.30;;;20.30;99.90;;;;;;5034783;28;210506;-67
2022/07/26 08:18:40;;;;;;;12.02;1.40;;;20.30;99.90;;;;;;5062023;28;275551;-67
2022/07/26 08:21:06;;;;;;;9.68;1.40;;;20.60;99.90;;;;;;5025424;28;206377;-67
2022/07/26 08:23:32;;;;;;;11.05;1.70;;;21.00;99.90;;;;;;5063052;28;257284;-67
2022/07/26 08:25:58;;;;;;;8.90;1.27;;;21.40;99.90;;;;;;5024963;28;204400;-67
2022/07/26 08:28:26;;;;;;;13.80;1.77;;;21.40;99.90;;;;;;5049040;28;263253;-67
2022/07/26 08:30:52;;;;;;;8.00;1.45;;;20.80;99.20;;;;;;5035060;28;211944;-67
2022/07/26 08:33:19;;;;;;;10.38;1.33;;;20.10;99.60;;;;;;5061463;28;254252;-67
2022/07/26 08:35:45;;;;;;;9.88;1.67;;;19.70;99.90;;;;;;5034716;28;209742;-68
2022/07/26 08:38:11;;;;;;;13.23;1.52;;;19.40;99.90;;;;;;5081411;28;20513;-67
2022/07/26 08:40:37;;;;;;;10.93;1.40;;;19.30;99.90;;;;;;5016942;28;214017;-67
2022/07/26 08:43:03;;;;;;;10.23;1.60;;;19.20;99.90;;;;;;5083281;28;20036;-66
2022/07/26 08:45:31;;;;;;;10.10;1.50;;;19.30;99.90;;;;;;5025982;28;258013;-68
2022/07/26 08:47:59;;;;;;;10.32;1.40;;;19.40;99.90;;;;;;5067235;28;20053;-68
2022/07/26 08:50:26;;;;;;;12.88;1.50;;;19.40;99.90;;;;;;5054992;28;256954;-68
2022/07/26 08:52:57;;;;;;;8.98;1.38;;;19.50;99.90;;;;;;5059823;28;177308;-68
2022/07/26 08:55:23;;;;;;;11.55;1.70;;;19.60;99.90;;;;;;5065447;28;263004;-67
2022/07/26 08:57:49;;;;;;;10.38;1.55;;;19.60;99.90;;;;;;5032521;28;228994;-67
2022/07/26 09:00:20;;;;;;;12.30;1.48;;;19.80;99.90;;;;;;5064289;28;272934;-68
2022/07/26 09:02:47;;;;;;;10.48;2.15;;;19.80;99.90;;;;;;5016961;28;217303;-67
2022/07/26 09:05:14;;;;;;;9.68;1.23;;;19.80;99.90;;;;;;5050104;28;274582;-66
2022/07/26 09:07:40;;;;;;;9.68;1.23;;;19.50;99.90;;;;;;5031656;28;220905;-67
2022/07/26 09:10:13;;;;;;;10.90;1.65;;;19.30;99.90;;;;;;5064190;28;253935;-67
2022/07/26 09:12:41;;;;;;;8.18;1.20;;;19.30;99.90;;;;;;5007716;28;208229;-67
2022/07/26 09:15:17;;;;;;;10.75;1.40;;;19.30;99.90;;;;;;5063075;28;272765;-66
2022/07/26 09:17:45;;;;;;;7.97;1.27;;;19.30;99.90;;;;;;5045682;28;209480;-67
2022/07/26 09:20:13;;;;;;;8.52;1.50;;;19.20;99.90;;;;;;5063931;28;255993;-67
2022/07/26 09:22:58;;;;;;;10.48;1.65;;;19.50;99.90;;;;;;5033292;28;209743;-67
2022/07/26 09:25:26;;;;;;;9.38;1.30;;;19.70;99.90;;;;;;5055989;28;255735;-68
2022/07/26 09:27:53;;;;;;;13.25;1.85;;;19.70;99.60;;;;;;5034497;28;215586;-67
2022/07/26 09:30:20;;;;;;;10.23;1.50;;;19.60;99.90;;;;;;5051940;28;194007;-66
2022/07/26 09:33:01;;;;;;;10.82;1.73;;;20.10;99.90;;;;;;5032566;28;218199;-68
2022/07/26 09:35:29;;;;;;;14.68;2.15;;;20.60;99.90;;;;;;5037939;28;274975;-69
2022/07/26 09:37:55;;;;;;;15.73;2.10;;;20.80;99.90;;;;;;5066053;28;206485;-67
2022/07/26 09:40:22;;;;;;;12.00;1.92;;;20.60;99.30;;;;;;5064545;28;262872;-67
2022/07/26 09:43:03;;;;;;;13.15;2.08;;;20.50;99.40;;;;;;5041857;28;207561;-68
2022/07/26 09:45:32;;;;;;;11.55;1.80;;;20.60;98.70;;;;;;5028615;28;258673;-68
2022/07/26 09:47:59;;;;;;;13.95;2.05;;;21.00;99.20;;;;;;5069982;28;20509;-68
2022/07/26 09:50:29;;;;;;;17.27;2.22;;;21.20;98.30;;;;;;5055633;28;262232;-69
2022/07/26 09:53:09;;;;;;;17.00;2.40;;;21.60;97.70;;;;;;5056283;28;208256;-68
2022/07/26 09:55:55;;;;;;;14.93;2.50;;;21.70;97.30;;;;;;5018244;28;256982;-68
2022/07/26 09:58:23;;;;;;;10.57;2.03;;;21.80;97.40;;;;;;5050628;28;273521;-68
2022/07/26 10:00:49;;;;;;;11.45;2.00;;;22.00;97.40;;;;;;5038538;28;217578;-68
2022/07/26 10:03:16;;;;;;;13.88;2.17;;;22.50;97.70;;;;;;5065796;28;270926;-67
2022/07/26 10:05:42;;;;;;;13.55;2.38;;;22.90;96.80;;;;;;5017912;28;216163;-68
2022/07/26 10:08:08;;;;;;;14.60;2.25;;;23.00;96.60;;;;;;5069098;28;20044;-68
2022/07/26 10:10:51;;;;;;;13.98;2.60;;;23.10;96.80;;;;;;5006386;28;211322;-67
2022/07/26 10:13:17;;;;;;;14.48;2.60;;;22.60;95.00;;;;;;5064784;28;248201;-67
2022/07/26 10:15:47;;;;;;;17.60;2.30;;;21.80;96.40;;;;;;5037871;28;209645;-67
2022/07/26 10:18:35;;;;;;;13.75;2.40;;;21.40;97.10;;;;;;5062746;28;257862;-67
2022/07/26 10:21:26;;;;;;;13.02;2.88;;;21.10;97.20;;;;;;5036872;28;209106;-68
2022/07/26 10:23:58;;;;;;;17.15;2.40;;;21.10;96.80;;;;;;4971132;28;79628;-67
2022/07/26 10:26:30;;;;;;;16.27;2.30;;;21.30;97.40;;;;;;4926896;28;206305;-68
2022/07/26 10:29:15;;;;;;;16.48;2.58;;;21.40;96.70;;;;;;4965332;28;33286;-68
2022/07/26 10:31:54;;;;;;;11.63;1.90;;;21.40;96.40;;;;;;4927317;28;207524;-66
2022/07/26 10:34:34;;;;;;;13.45;2.35;;;21.50;96.40;;;;;;4966561;28;227272;-68
2022/07/26 10:37:09;;;;;;;13.38;2.20;;;21.60;96.00;;;;;;4929313;28;207211;-68
2022/07/26 10:39:37;;;;;;;11.80;1.85;;;21.60;95.70;;;;;;4956860;28;248807;-67
2022/07/26 10:42:08;;;;;;;16.02;2.35;;;21.60;95.50;;;;;;4920013;28;207046;-67
2022/07/26 10:44:45;;;;;;;11.82;2.15;;;21.70;94.90;;;;;;4963917;28;139062;-68
2022/07/26 10:47:14;;;;;;;14.00;2.42;;;21.60;94.30;;;;;;4926158;28;205541;-67
2022/07/26 10:49:40;;;;;;;12.73;2.20;;;21.40;94.40;;;;;;4974486;28;94152;-68
2022/07/26 10:52:14;;;;;;;12.18;2.17;;;21.50;95.00;;;;;;4930296;28;207491;-67
2022/07/26 10:54:55;;;;;;;18.25;2.95;;;21.70;94.70;;;;;;4972541;28;119433;-67
2022/07/26 10:57:33;;;;;;;14.23;2.53;;;21.80;93.60;;;;;;4927710;28;212252;-67
2022/07/26 11:00:00;;;;;;;11.32;1.90;;;22.00;93.20;;;;;;4985104;28;69512;-68
2022/07/26 11:02:34;;;;;;;11.32;2.08;;;22.20;93.20;;;;;;5036004;28;209343;-68
2022/07/26 11:05:13;;;;;;;10.73;1.77;;;22.40;92.70;;;;;;5045774;28;272782;-68
2022/07/26 11:08:09;;;;;;;11.50;2.13;;;22.10;92.20;;;;;;5035910;28;223843;-68
2022/07/26 11:10:46;;;;;;;13.43;1.90;;;22.20;92.40;;;;;;5000422;28;238068;-69
2022/07/26 11:13:15;;;;;;;12.73;1.90;;;22.20;92.10;;;;;;5082951;28;20053;-69
2022/07/26 11:15:44;;;;;;;13.40;2.10;;;22.40;92.10;;;;;;4992064;28;210095;-67
2022/07/26 11:18:26;;;;;;;9.63;1.50;;;23.00;91.60;;;;;;5068329;28;20052;-68
2022/07/26 11:20:54;;;;;;;10.88;1.73;;;23.50;91.20;;;;;;5021519;28;216117;-67
2022/07/26 11:23:29;;;;;;;11.50;1.90;;;23.60;88.60;;;;;;5050108;28;251650;-68
2022/07/26 11:26:16;;;;;;;11.45;1.70;;;23.40;89.40;;;;;;5034696;28;209998;-68
2022/07/26 11:28:48;;;;;;;10.73;1.90;;;23.40;86.60;;;;;;5054031;28;212329;-68
2022/07/26 11:31:15;;;;;;;10.75;1.83;;;23.70;89.10;;;;;;5034726;28;212918;-68
2022/07/26 11:33:44;;;;;;;9.98;1.67;;;24.00;86.30;;;;;;5054052;28;205388;-68
2022/07/26 11:36:11;;;;;;;10.20;1.63;;;23.80;85.40;;;;;;5035640;28;215658;-68
2022/07/26 11:38:53;;;;;;;13.20;1.90;;;24.00;84.30;;;;;;5063313;28;262627;-68
2022/07/26 11:41:28;;;;;;;10.02;1.65;;;24.30;84.90;;;;;;5034671;28;212321;-68
2022/07/26 11:43:55;;;;;;;11.25;1.80;;;24.00;80.10;;;;;;5062952;28;266026;-68
2022/07/26 11:46:30;;;;;;;8.07;1.50;;;23.50;81.50;;;;;;5041335;28;209818;-68
2022/07/26 11:48:56;;;;;;;12.90;1.67;;;23.40;81.70;;;;;;5063162;28;263167;-66
2022/07/26 11:51:23;;;;;;;9.40;1.58;;;23.30;82.00;;;;;;5037344;28;210903;-67
2022/07/26 11:53:58;;;;;;;11.25;1.70;;;24.00;82.70;;;;;;5062617;28;272068;-68
2022/07/26 11:56:26;;;;;;;8.80;1.50;;;24.30;78.60;;;;;;5023420;28;204331;-67
2022/07/26 11:58:55;;;;;;;11.45;1.70;;;24.10;77.20;;;;;;5063379;28;256479;-68
2022/07/26 12:01:23;;;;;;;10.77;1.38;;;23.80;77.00;;;;;;5035487;28;206972;-68
2022/07/26 12:03:52;;;;;;;12.05;1.70;;;23.60;74.60;;;;;;5049390;28;271582;-68
2022/07/26 12:06:24;;;;;;;10.73;1.75;;;22.60;77.00;;;;;;5036358;28;214010;-68
2022/07/26 12:08:53;;;;;;;8.35;1.15;;;22.10;77.30;;;;;;5059102;28;40714;-68
2022/07/26 12:11:21;;;;;;;11.85;1.50;;;21.70;77.10;;;;;;5039800;28;216369;-67
2022/07/26 12:13:57;;;;;;;14.82;2.15;;;21.80;79.80;;;;;;5062704;28;258379;-68
2022/07/26 12:16:37;;;;;;;12.43;2.17;;;22.20;80.80;;;;;;5032218;28;206299;-68
2022/07/26 12:19:05;;;;;;;11.75;1.80;;;22.60;79.80;;;;;;5062235;28;266396;-69
2022/07/26 12:21:42;;;;;;;8.85;1.40;;;22.40;79.10;;;;;;5035422;28;209413;-68
2022/07/26 12:24:10;;;;;;;8.60;1.63;;;22.40;79.60;;;;;;5062426;28;261640;-68
2022/07/26 12:26:37;;;;;;;10.73;1.40;;;22.40;78.70;;;;;;5038400;28;209246;-70
2022/07/26 12:32:05;;;;;;;7.65;1.30;;;22.90;79.50;;;;;;5043786;28;210169;-68
2022/07/26 12:34:32;;;;;;;8.20;1.40;;;23.30;77.30;;;;;;5055777;28;196602;-69
2022/07/26 12:37:16;;;;;;;7.70;1.42;;;22.90;76.60;;;;;;5042765;28;213463;-68
2022/07/26 12:39:59;;;;;;;7.88;1.35;;;22.40;76.10;;;;;;5056748;28;139913;-67
2022/07/26 12:42:31;;;;;;;9.40;1.40;;;22.30;77.20;;;;;;5035844;28;215303;-68